createdAt,value
2018-02-18T00:00:09.190Z,29.81
2018-02-18T00:02:36.551Z,29.87
2018-02-18T00:05:03.984Z,29.69
2018-02-18T00:07:31.452Z,29.79
2018-02-18T00:09:58.781Z,29.80
2018-02-18T00:12:26.179Z,29.79
2018-02-18T00:14:53.554Z,29.93
2018-02-18T00:17:20.959Z,29.83
2018-02-18T00:19:48.314Z,29.81
2018-02-18T00:22:15.679Z,29.92
2018-02-18T00:24:43.088Z,29.86
2018-02-18T00:27:10.488Z,29.70
2018-02-18T00:29:37.854Z,29.83
2018-02-18T00:32:05.220Z,29.75
2018-02-18T00:34:32.604Z,29.90
2018-02-18T00:37:01.459Z,29.82
2018-02-18T00:39:28.807Z,29.80
2018-02-18T00:41:56.156Z,29.73
2018-02-18T00:44:23.661Z,29.85
2018-02-18T00:46:50.979Z,29.87
2018-02-18T00:49:18.328Z,29.80
2018-02-18T00:51:45.719Z,29.84
2018-02-18T00:54:13.094Z,29.89
2018-02-18T00:56:40.532Z,29.98
2018-02-18T00:59:07.914Z,29.87
2018-02-18T01:01:35.279Z,29.77
2018-02-18T01:04:02.636Z,29.74
2018-02-18T01:06:30.031Z,29.59
2018-02-18T01:08:57.501Z,29.76
2018-02-18T01:11:24.890Z,29.78
2018-02-18T01:13:52.251Z,29.79
2018-02-18T01:16:19.633Z,29.78
2018-02-18T01:18:47.098Z,29.66
2018-02-18T01:21:14.488Z,29.71
2018-02-18T01:23:41.917Z,29.77
2018-02-18T01:26:09.294Z,29.76
2018-02-18T01:28:37.162Z,29.65
2018-02-18T01:31:04.556Z,29.74
2018-02-18T01:33:31.911Z,29.71
2018-02-18T01:35:59.294Z,29.64
2018-02-18T01:38:26.716Z,29.72
2018-02-18T01:40:54.083Z,29.74
2018-02-18T01:43:21.521Z,29.60
2018-02-18T01:45:48.885Z,29.69
2018-02-18T01:48:16.287Z,29.67
2018-02-18T01:50:43.752Z,29.71
2018-02-18T01:53:11.176Z,29.63
2018-02-18T01:55:38.548Z,29.55
2018-02-18T01:58:05.911Z,29.67
2018-02-18T02:00:33.308Z,29.73
2018-02-18T02:03:00.704Z,29.58
2018-02-18T02:05:28.116Z,29.64
2018-02-18T02:07:55.475Z,29.64
2018-02-18T02:10:22.875Z,29.63
2018-02-18T02:12:50.343Z,29.67
2018-02-18T02:15:17.716Z,29.62
2018-02-18T02:17:45.113Z,29.56
2018-02-18T02:20:12.579Z,29.61
2018-02-18T02:22:40.060Z,29.70
2018-02-18T02:25:07.463Z,29.59
2018-02-18T02:27:34.821Z,29.68
2018-02-18T02:30:02.208Z,29.62
2018-02-18T02:32:29.570Z,29.58
2018-02-18T02:34:56.969Z,29.66
2018-02-18T02:37:24.344Z,29.66
2018-02-18T02:39:51.779Z,29.61
2018-02-18T02:42:19.143Z,29.54
2018-02-18T02:44:46.528Z,29.59
2018-02-18T02:47:13.943Z,29.57
2018-02-18T02:49:41.310Z,29.54
2018-02-18T02:52:08.804Z,29.67
2018-02-18T02:54:36.196Z,29.54
2018-02-18T02:57:03.564Z,29.66
2018-02-18T02:59:31.038Z,29.65
2018-02-18T03:01:58.403Z,29.58
2018-02-18T03:04:25.814Z,29.57
2018-02-18T03:06:53.192Z,29.53
2018-02-18T03:09:20.551Z,29.57
2018-02-18T03:11:47.930Z,29.57
2018-02-18T03:14:15.324Z,29.65
2018-02-18T03:16:42.679Z,29.70
2018-02-18T03:19:10.107Z,29.67
2018-02-18T03:21:37.475Z,29.55
2018-02-18T03:24:04.867Z,29.68
2018-02-18T03:26:32.297Z,29.75
2018-02-18T03:28:59.722Z,29.68
2018-02-18T03:31:27.094Z,29.62
2018-02-18T03:33:54.476Z,29.60
2018-02-18T03:36:21.860Z,29.63
2018-02-18T03:38:49.323Z,29.62
2018-02-18T03:41:16.697Z,29.67
2018-02-18T03:43:44.107Z,29.65
2018-02-18T03:46:11.582Z,29.67
2018-02-18T03:48:38.997Z,29.71
2018-02-18T03:51:06.409Z,29.69
2018-02-18T03:53:33.854Z,29.62
2018-02-18T03:56:01.219Z,29.70
2018-02-18T03:58:28.587Z,29.66
2018-02-18T04:00:55.984Z,29.70
2018-02-18T04:03:23.463Z,29.66
2018-02-18T04:05:50.837Z,29.66
2018-02-18T04:08:18.584Z,29.65
2018-02-18T04:10:46.005Z,29.74
2018-02-18T04:13:13.413Z,29.76
2018-02-18T04:15:40.810Z,29.72
2018-02-18T04:18:08.303Z,29.77
2018-02-18T04:20:35.718Z,29.83
2018-02-18T04:23:03.094Z,29.73
2018-02-18T04:25:30.546Z,29.73
2018-02-18T04:27:57.941Z,29.73
2018-02-18T04:30:25.362Z,29.72
2018-02-18T04:32:52.807Z,29.71
2018-02-18T04:35:20.235Z,29.75
2018-02-18T04:37:47.601Z,29.73
2018-02-18T04:40:15.002Z,29.75
2018-02-18T04:42:42.440Z,29.70
2018-02-18T04:45:09.968Z,29.71
2018-02-18T04:47:37.415Z,29.83
2018-02-18T04:50:04.803Z,29.82
2018-02-18T04:52:32.179Z,29.72
2018-02-18T04:54:59.538Z,29.69
2018-02-18T04:57:26.918Z,29.87
2018-02-18T04:59:54.313Z,29.83
2018-02-18T05:02:21.754Z,29.79
2018-02-18T05:04:49.132Z,29.83
2018-02-18T05:07:16.553Z,29.83
2018-02-18T05:09:43.973Z,29.80
2018-02-18T05:12:11.362Z,29.74
2018-02-18T05:14:38.725Z,29.86
2018-02-18T05:17:06.131Z,29.91
2018-02-18T05:19:33.549Z,29.75
2018-02-18T05:22:01.003Z,29.72
2018-02-18T05:24:28.422Z,29.75
2018-02-18T05:26:55.896Z,29.81
2018-02-18T05:29:23.311Z,29.74
2018-02-18T05:31:50.722Z,29.78
2018-02-18T05:34:18.630Z,29.77
2018-02-18T05:36:46.019Z,29.82
2018-02-18T05:39:13.435Z,29.74
2018-02-18T05:41:40.825Z,29.78
2018-02-18T05:44:08.230Z,29.68
2018-02-18T05:46:35.638Z,29.79
2018-02-18T05:49:03.105Z,29.68
2018-02-18T05:51:30.462Z,29.78
2018-02-18T05:53:57.848Z,29.64
2018-02-18T05:56:25.194Z,29.76
2018-02-18T05:58:52.545Z,29.71
2018-02-18T06:01:19.964Z,29.67
2018-02-18T06:03:47.377Z,29.68
2018-02-18T06:06:14.798Z,29.77
2018-02-18T06:08:42.277Z,29.65
2018-02-18T06:11:09.647Z,29.75
2018-02-18T06:13:37.009Z,29.75
2018-02-18T06:16:04.475Z,29.68
2018-02-18T06:18:31.887Z,29.69
2018-02-18T06:20:59.301Z,29.73
2018-02-18T06:23:26.811Z,29.61
2018-02-18T06:25:54.235Z,29.74
2018-02-18T06:28:21.588Z,29.70
2018-02-18T06:30:48.945Z,29.60
2018-02-18T06:33:16.403Z,29.53
2018-02-18T06:35:43.815Z,29.57
2018-02-18T06:38:11.343Z,29.49
2018-02-18T06:40:38.796Z,29.48
2018-02-18T06:43:06.182Z,29.60
2018-02-18T06:45:33.583Z,29.46
2018-02-18T06:48:01.026Z,29.52
2018-02-18T06:50:28.439Z,29.48
2018-02-18T06:52:55.843Z,29.54
2018-02-18T06:55:23.379Z,29.49
2018-02-18T06:57:50.784Z,29.44
2018-02-18T07:00:18.211Z,29.43
2018-02-18T07:02:45.597Z,29.48
2018-02-18T07:05:13.192Z,29.65
2018-02-18T07:07:40.588Z,29.56
2018-02-18T07:10:08.230Z,29.57
2018-02-18T07:12:35.614Z,29.67
2018-02-18T07:15:03.056Z,29.63
2018-02-18T07:17:30.500Z,29.65
2018-02-18T07:19:57.964Z,29.65
2018-02-18T07:22:25.357Z,29.64
2018-02-18T07:24:52.756Z,29.66
2018-02-18T07:27:20.166Z,29.77
2018-02-18T07:29:47.716Z,29.64
2018-02-18T07:32:15.095Z,29.63
2018-02-18T07:34:42.575Z,29.67
2018-02-18T07:37:09.976Z,29.75
2018-02-18T07:39:37.355Z,29.77
2018-02-18T07:42:04.717Z,29.75
2018-02-18T07:44:32.100Z,29.59
2018-02-18T07:46:59.480Z,29.51
2018-02-18T07:49:26.922Z,29.57
2018-02-18T07:51:54.358Z,29.59
2018-02-18T07:54:21.731Z,29.35
2018-02-18T07:56:49.154Z,29.34
2018-02-18T07:59:16.523Z,29.40
2018-02-18T08:01:43.903Z,29.32
2018-02-18T08:04:11.593Z,29.27
2018-02-18T08:45:01.959Z,29.21
2018-02-18T08:47:29.307Z,29.20
2018-02-18T08:49:56.654Z,29.19
2018-02-18T08:52:24.001Z,29.30
2018-02-18T08:54:51.358Z,29.34
2018-02-18T08:57:18.699Z,29.30
2018-02-18T08:59:46.036Z,29.24
2018-02-18T09:02:13.451Z,29.32
2018-02-18T09:04:40.786Z,29.35
2018-02-18T09:07:08.215Z,29.30
2018-02-18T09:09:35.562Z,29.33
2018-02-18T09:12:02.920Z,29.45
2018-02-18T09:14:30.292Z,29.32
2018-02-18T09:16:57.653Z,29.35
2018-02-18T09:19:25.000Z,29.39
2018-02-18T09:21:52.346Z,29.49
2018-02-18T09:24:19.698Z,29.37
2018-02-18T09:26:47.054Z,29.53
2018-02-18T09:29:14.483Z,29.52
2018-02-18T09:31:41.822Z,29.47
2018-02-18T09:34:09.213Z,29.56
2018-02-18T09:36:36.541Z,29.65
2018-02-18T09:39:03.887Z,29.54
2018-02-18T09:41:31.247Z,29.54
2018-02-18T09:43:58.590Z,29.54
2018-02-18T09:46:25.931Z,29.61
2018-02-18T09:48:53.274Z,29.63
2018-02-18T09:51:20.624Z,29.65
2018-02-18T09:53:47.974Z,29.57
2018-02-18T09:56:15.320Z,29.64
2018-02-18T09:58:42.664Z,29.69
2018-02-18T10:01:10.050Z,29.69
2018-02-18T10:03:37.394Z,29.75
2018-02-18T10:06:04.730Z,29.79
2018-02-18T10:08:32.091Z,29.69
2018-02-18T10:10:59.458Z,29.72
2018-02-18T10:13:26.862Z,29.70
2018-02-18T10:15:54.206Z,29.66
2018-02-18T10:18:21.548Z,29.75
2018-02-18T10:20:48.887Z,29.77
2018-02-18T10:23:16.237Z,29.76
2018-02-18T10:25:43.686Z,29.79
2018-02-18T10:28:11.036Z,29.78
2018-02-18T10:30:38.442Z,29.77
2018-02-18T10:33:05.852Z,29.84
2018-02-18T10:35:33.230Z,29.81
2018-02-18T10:38:00.622Z,29.79
2018-02-18T10:40:27.974Z,29.80
2018-02-18T10:42:55.354Z,29.91
2018-02-18T10:45:22.690Z,29.75
2018-02-18T10:47:50.077Z,29.82
2018-02-18T10:50:17.414Z,29.84
2018-02-18T10:52:44.746Z,29.89
2018-02-18T10:55:12.154Z,29.85
2018-02-18T10:57:39.503Z,29.81
2018-02-18T11:00:06.899Z,29.80
2018-02-18T11:02:34.258Z,29.88
2018-02-18T11:05:01.687Z,29.79
2018-02-18T11:07:29.032Z,29.87
2018-02-18T11:09:56.417Z,29.84
2018-02-18T11:12:23.806Z,29.79
2018-02-18T11:14:51.148Z,29.87
2018-02-18T11:17:18.541Z,29.74
2018-02-18T11:19:45.885Z,29.80
2018-02-18T11:22:13.302Z,29.75
2018-02-18T11:24:40.668Z,29.77
2018-02-18T11:27:08.035Z,29.72
2018-02-18T11:29:35.382Z,29.65
2018-02-18T11:32:02.786Z,29.69
2018-02-18T11:34:30.139Z,29.69
2018-02-18T11:36:57.529Z,29.64
2018-02-18T11:39:24.871Z,29.74
2018-02-18T11:41:52.206Z,29.63
2018-02-18T11:44:19.547Z,29.60
2018-02-18T11:46:46.913Z,29.61
2018-02-18T11:49:14.300Z,29.64
2018-02-18T11:51:41.637Z,29.61
2018-02-18T11:54:09.010Z,29.53
2018-02-18T11:56:36.371Z,29.56
2018-02-18T11:59:03.710Z,29.57
2018-02-18T12:01:31.054Z,29.50
2018-02-18T12:03:58.435Z,29.54
2018-02-18T12:06:25.784Z,29.46
2018-02-18T12:08:53.121Z,29.46
2018-02-18T12:11:20.510Z,29.51
2018-02-18T12:13:47.882Z,29.45
2018-02-18T12:16:15.224Z,29.47
2018-02-18T12:18:42.610Z,29.47
2018-02-18T12:21:09.993Z,29.44
2018-02-18T12:23:37.409Z,29.45
2018-02-18T12:26:04.760Z,29.45
2018-02-18T12:28:32.106Z,29.40
2018-02-18T12:30:59.490Z,29.48
2018-02-18T12:33:26.827Z,29.40
2018-02-18T12:35:54.180Z,29.44
2018-02-18T12:38:21.519Z,29.50
2018-02-18T12:40:48.859Z,29.37
2018-02-18T12:43:16.294Z,29.53
2018-02-18T12:45:43.656Z,29.47
2018-02-18T12:48:11.036Z,29.52
2018-02-18T12:50:38.397Z,29.54
2018-02-18T12:53:05.778Z,29.50
2018-02-18T12:55:33.209Z,29.53
2018-02-18T12:58:00.550Z,29.51
2018-02-18T13:00:27.888Z,29.50
2018-02-18T13:02:55.230Z,29.53
2018-02-18T13:05:22.586Z,29.51
2018-02-18T13:07:49.942Z,29.47
2018-02-18T13:10:17.351Z,29.51
2018-02-18T13:12:44.722Z,29.51
2018-02-18T13:15:12.104Z,29.59
2018-02-18T13:17:39.485Z,29.62
2018-02-18T13:20:06.831Z,29.52
2018-02-18T13:22:34.207Z,29.63
2018-02-18T13:25:01.545Z,29.66
2018-02-18T13:27:28.890Z,29.64
2018-02-18T13:29:56.235Z,29.71
2018-02-18T13:32:23.656Z,29.66
2018-02-18T13:34:50.988Z,29.67
2018-02-18T13:37:18.322Z,29.71
2018-02-18T13:39:45.659Z,29.75
2018-02-18T13:42:13.017Z,29.72
2018-02-18T13:44:40.403Z,29.72
2018-02-18T13:47:07.742Z,29.76
2018-02-18T13:49:35.120Z,29.73
2018-02-18T13:52:02.460Z,29.78
2018-02-18T13:54:29.842Z,29.79
2018-02-18T13:56:57.186Z,29.80
2018-02-18T13:59:24.554Z,29.75
2018-02-18T14:01:51.923Z,29.82
2018-02-18T14:04:19.259Z,29.89
2018-02-18T14:06:46.659Z,29.76
2018-02-18T14:09:14.045Z,29.84
2018-02-18T14:11:41.431Z,29.89
2018-02-18T14:14:08.764Z,29.84
2018-02-18T14:16:36.147Z,30.00
2018-02-18T14:19:03.488Z,29.94
2018-02-18T14:21:30.862Z,29.90
2018-02-18T14:23:58.198Z,29.92
2018-02-18T14:26:25.567Z,29.90
2018-02-18T14:28:52.946Z,29.94
2018-02-18T14:31:20.291Z,29.81
2018-02-18T14:33:47.663Z,30.01
2018-02-18T14:36:15.006Z,29.94
2018-02-18T14:38:42.451Z,29.95
2018-02-18T14:41:09.794Z,29.99
2018-02-18T14:43:37.144Z,29.96
2018-02-18T14:46:04.523Z,29.95
2018-02-18T14:48:31.860Z,30.02
2018-02-18T14:50:59.248Z,30.09
2018-02-18T14:53:26.619Z,30.08
2018-02-18T14:55:53.994Z,30.08
2018-02-18T14:58:21.331Z,30.09
2018-02-18T15:00:48.695Z,30.04
2018-02-18T15:03:16.077Z,30.09
2018-02-18T15:05:43.411Z,30.08
2018-02-18T15:08:10.744Z,30.08
2018-02-18T15:10:38.216Z,30.09
2018-02-18T15:13:05.557Z,30.12
2018-02-18T15:15:32.910Z,30.10
2018-02-18T15:18:00.251Z,30.12
2018-02-18T15:20:27.623Z,30.17
2018-02-18T15:22:54.998Z,30.18
2018-02-18T15:25:22.346Z,30.13
2018-02-18T15:27:49.723Z,30.23
2018-02-18T15:30:17.068Z,30.27
2018-02-18T15:32:44.483Z,30.31
2018-02-18T15:35:11.834Z,30.30
2018-02-18T15:37:39.189Z,30.26
2018-02-18T15:40:06.570Z,30.31
2018-02-18T15:42:33.922Z,30.26
2018-02-18T15:45:01.262Z,30.30
2018-02-18T15:47:28.591Z,30.40
2018-02-18T15:49:55.925Z,30.33
2018-02-18T15:52:23.306Z,30.37
2018-02-18T15:54:50.647Z,30.37
2018-02-18T15:57:18.023Z,30.33
2018-02-18T15:59:45.367Z,30.49
2018-02-18T16:02:12.777Z,30.45
2018-02-18T16:04:40.251Z,30.46
2018-02-18T16:07:07.639Z,30.54
2018-02-18T16:09:35.018Z,30.45
2018-02-18T16:12:02.355Z,30.49
2018-02-18T16:14:29.781Z,30.54
2018-02-18T16:16:57.103Z,30.50
2018-02-18T16:19:24.458Z,30.53
2018-02-18T16:21:51.831Z,30.58
2018-02-18T16:24:19.166Z,30.61
2018-02-18T16:26:46.506Z,30.57
2018-02-18T16:29:13.848Z,30.56
2018-02-18T16:31:41.178Z,30.59
2018-02-18T16:34:08.550Z,30.62
2018-02-18T16:36:35.936Z,30.66
2018-02-18T16:39:03.300Z,30.70
2018-02-18T16:41:30.637Z,30.67
2018-02-18T16:43:57.979Z,30.73
2018-02-18T16:46:25.335Z,30.74
2018-02-18T16:48:52.720Z,30.78
2018-02-18T16:51:20.058Z,30.80
2018-02-18T16:53:47.445Z,30.81
2018-02-18T16:56:14.830Z,30.80
2018-02-18T16:58:42.254Z,30.82
2018-02-18T17:01:09.594Z,30.85
2018-02-18T17:03:36.981Z,30.85
2018-02-18T17:06:04.336Z,30.85
2018-02-18T17:08:31.690Z,30.79
2018-02-18T17:10:59.072Z,30.90
2018-02-18T17:13:26.440Z,30.95
2018-02-18T17:15:53.783Z,30.91
2018-02-18T17:18:21.197Z,30.92
2018-02-18T17:20:48.567Z,30.99
2018-02-18T17:23:15.948Z,31.03
2018-02-18T17:25:43.367Z,31.05
2018-02-18T17:28:10.709Z,30.95
2018-02-18T17:30:38.048Z,30.96
2018-02-18T17:33:05.403Z,31.02
2018-02-18T17:35:32.790Z,30.99
2018-02-18T17:38:00.135Z,30.98
2018-02-18T17:40:27.526Z,31.00
2018-02-18T17:42:54.927Z,31.07
2018-02-18T17:45:22.291Z,31.05
2018-02-18T17:47:49.674Z,31.00
2018-02-18T17:50:17.104Z,31.10
2018-02-18T17:52:44.440Z,31.04
2018-02-18T17:55:11.866Z,31.08
2018-02-18T17:57:39.243Z,31.04
2018-02-18T18:00:06.639Z,31.06
2018-02-18T18:02:33.977Z,31.15
2018-02-18T18:05:01.318Z,31.04
2018-02-18T18:07:28.668Z,31.09
2018-02-18T18:09:56.056Z,31.16
2018-02-18T18:12:23.484Z,31.07
2018-02-18T18:14:50.872Z,31.11
2018-02-18T18:17:18.255Z,31.15
2018-02-18T18:19:45.670Z,31.18
2018-02-18T18:22:13.018Z,31.11
2018-02-18T18:24:40.418Z,31.18
2018-02-18T18:27:07.798Z,31.21
2018-02-18T18:29:35.139Z,31.21
2018-02-18T18:32:02.485Z,31.20
2018-02-18T18:34:29.865Z,31.19
2018-02-18T18:36:57.214Z,31.25
2018-02-18T18:39:24.609Z,31.28
2018-02-18T18:41:52.020Z,31.21
2018-02-18T18:44:19.410Z,31.30
2018-02-18T18:46:46.771Z,31.21
2018-02-18T18:49:14.183Z,31.30
2018-02-18T18:51:41.603Z,31.25
2018-02-18T18:54:08.958Z,31.29
2018-02-18T18:56:36.350Z,31.23
2018-02-18T18:59:03.696Z,31.30
2018-02-18T19:01:31.096Z,31.25
2018-02-18T19:03:58.454Z,31.27
2018-02-18T19:06:25.862Z,31.26
2018-02-18T19:08:53.214Z,31.27
2018-02-18T19:11:20.596Z,31.30
2018-02-18T19:13:47.991Z,31.31
2018-02-18T19:16:15.357Z,31.36
2018-02-18T19:18:42.750Z,31.28
2018-02-18T19:21:10.178Z,31.30
2018-02-18T19:23:37.558Z,31.28
2018-02-18T19:26:04.950Z,31.37
2018-02-18T19:28:32.295Z,31.37
2018-02-18T19:30:59.647Z,31.35
2018-02-18T19:33:27.036Z,31.29
2018-02-18T19:35:54.379Z,31.34
2018-02-18T19:38:21.771Z,31.44
2018-02-18T19:40:49.131Z,31.38
2018-02-18T19:43:16.517Z,31.40
2018-02-18T19:45:43.865Z,31.42
2018-02-18T19:48:11.262Z,31.41
2018-02-18T19:50:38.631Z,31.46
2018-02-18T19:53:06.014Z,31.54
2018-02-18T19:55:33.394Z,31.53
2018-02-18T19:58:00.779Z,31.50
2018-02-18T20:00:28.127Z,31.51
2018-02-18T20:02:55.476Z,31.55
2018-02-18T20:05:22.838Z,31.54
2018-02-18T20:07:50.174Z,31.58
2018-02-18T20:10:17.523Z,31.58
2018-02-18T20:12:44.871Z,31.56
2018-02-18T20:15:12.251Z,31.69
2018-02-18T20:17:39.593Z,31.68
2018-02-18T20:20:06.995Z,31.69
2018-02-18T20:22:34.351Z,31.74
2018-02-18T20:25:01.693Z,31.69
2018-02-18T20:27:29.105Z,31.76
2018-02-18T20:29:56.506Z,31.82
2018-02-18T20:32:23.854Z,31.83
2018-02-18T20:34:51.250Z,31.85
2018-02-18T20:37:18.600Z,31.87
2018-02-18T20:39:46.024Z,31.94
2018-02-18T20:42:13.383Z,32.00
2018-02-18T20:44:40.731Z,31.99
2018-02-18T20:47:08.099Z,32.00
2018-02-18T20:49:35.484Z,32.07
2018-02-18T20:52:02.890Z,32.06
2018-02-18T20:54:30.245Z,32.04
2018-02-18T20:56:57.642Z,32.14
2018-02-18T20:59:25.039Z,32.07
2018-02-18T21:01:52.407Z,32.19
2018-02-18T21:04:19.813Z,32.17
2018-02-18T21:06:47.174Z,32.23
2018-02-18T21:09:14.542Z,32.23
2018-02-18T21:11:41.886Z,32.28
2018-02-18T21:14:09.231Z,32.30
2018-02-18T21:16:36.571Z,32.35
2018-02-18T21:19:03.931Z,32.35
2018-02-18T21:21:31.330Z,32.44
2018-02-18T21:23:58.691Z,32.45
2018-02-18T21:26:26.189Z,32.44
2018-02-18T21:28:53.555Z,32.55
2018-02-18T21:31:20.920Z,32.59
2018-02-18T21:33:48.284Z,32.57
2018-02-18T21:36:15.712Z,32.64
2018-02-18T21:38:43.150Z,32.65
2018-02-18T21:41:10.498Z,32.68
2018-02-18T21:43:37.903Z,32.64
2018-02-18T21:46:05.248Z,32.66
2018-02-18T21:48:32.622Z,32.67
2018-02-18T21:51:00.063Z,32.67
2018-02-18T21:53:27.459Z,32.74
2018-02-18T21:55:54.832Z,32.78
2018-02-18T21:58:22.249Z,32.86
2018-02-18T22:00:49.621Z,32.88
2018-02-18T22:03:16.979Z,32.86
2018-02-18T22:08:17.740Z,32.83
2018-02-18T22:10:45.156Z,32.92
2018-02-18T22:13:12.552Z,32.94
2018-02-18T22:15:39.956Z,32.97
2018-02-18T22:18:07.670Z,33.04
2018-02-18T22:20:35.045Z,33.04
2018-02-18T22:23:02.478Z,33.07
2018-02-18T22:25:29.911Z,33.12
2018-02-18T22:27:57.315Z,33.14
2018-02-18T22:30:24.702Z,33.14
2018-02-18T22:32:52.081Z,33.12
2018-02-18T22:35:19.483Z,33.10
2018-02-18T22:37:46.866Z,33.22
2018-02-18T22:40:14.423Z,33.21
2018-02-18T22:42:41.804Z,33.17
2018-02-18T22:45:09.194Z,33.14
2018-02-18T22:47:36.675Z,33.24
2018-02-18T22:50:04.011Z,33.27
2018-02-18T22:52:31.366Z,33.23
2018-02-18T22:54:58.711Z,33.27
2018-02-18T22:57:26.055Z,33.39
2018-02-18T22:59:53.401Z,33.38
2018-02-18T23:02:20.773Z,33.36
2018-02-18T23:04:48.167Z,33.37
2018-02-18T23:07:15.522Z,33.38
2018-02-18T23:09:42.893Z,33.48
2018-02-18T23:12:10.259Z,33.43
2018-02-18T23:14:37.646Z,33.53
2018-02-18T23:17:05.016Z,33.45
2018-02-18T23:19:32.449Z,33.44
2018-02-18T23:21:59.822Z,33.47
2018-02-18T23:24:27.176Z,33.54
2018-02-18T23:26:54.601Z,33.57
2018-02-18T23:29:21.985Z,33.48
2018-02-18T23:31:49.347Z,33.44
2018-02-18T23:34:16.737Z,33.47
2018-02-18T23:36:44.128Z,33.52
2018-02-18T23:39:11.564Z,33.56
2018-02-18T23:41:38.935Z,33.58
2018-02-18T23:44:06.399Z,33.58
2018-02-18T23:46:33.756Z,33.57
2018-02-18T23:49:01.167Z,33.58
2018-02-18T23:51:28.541Z,33.55
2018-02-18T23:53:55.928Z,33.57
2018-02-18T23:56:23.329Z,33.65
2018-02-18T23:58:50.722Z,33.68
